Deerfield, WI

7:56 PM CST on November 26, 2014 (GMT -0600)
Dane County Regional-Truax | Change Station
CLOSE
Current Station
Airport
Location: Madison,
Elevation: 866 ft
Nearby Weather Stations

Elev 866 ft 43.14 °N, 89.35 °W | Updated 28 minutes ago

Mostly Cloudy
Mostly Cloudy
18 °F
Feels Like 11 °F
N
5
Wind Variable Wind from NW

Today
High -- | Low -- °F
--% Chance of Precip.
Yesterday
High -- | Low -- °F
Precip. -- in
7:02 AM 4:24 PM
Waxing Crescent, 24% visible
Pressure 30.19 in
Visibility 6.0 miles
Clouds Few 1200 ft
Mostly Cloudy 10000 ft
Mostly Cloudy 20000 ft
Windchill 11 °F
Dew Point 15 °F
Humidity 88%
Rainfall 0.00 in
Snow Depth Not available.
UV 0 out of 12
Pollen .10 out of 12
Air Quality Not available.
Flu Activity Not available.
SPECI KMSN 270128Z 32004KT 6SM BR FEW012 BKN100 BKN200 M08/M09 A3019 RMK AO2 I1000 T10781094

More Conditions Fewer Conditions

Pressure 30.19 in
Visibility 6.0 miles
Clouds Few 1200 ft
Mostly Cloudy 10000 ft
Mostly Cloudy 20000 ft
Windchill 11 °F
Dew Point 15 °F
Humidity 88%
Rainfall 0.00 in
Snow Depth Not available.
UV 0 out of 12
Pollen .10 out of 12
Air Quality Not available.
Flu Activity Not available.
SPECI KMSN 270128Z 32004KT 6SM BR FEW012 BKN100 BKN200 M08/M09 A3019 RMK AO2 I1000 T10781094

More Conditions Fewer Conditions

10-Day Weather Forecast

Almanac

Astronomy

Nov. 26, 2014 Rise Set
Actual Time
Civil Twilight
Nautical Twilight
Astronomical Twilight
Moon
Length of Visible Light
Length of Day
Tomorrow will be .
, % of the Moon is Illuminated

Today's Extremes

State Highs State Lows

Community

WunderPhotos

Upload Photos

1,773,940 photos uploaded!

WunderBlogs® & News

Nearby

Air Quality

  Air Quality AQ Index Pollutant
Not available.

Snow Depth

Station Depth Elevation

Earthquake Activity

City Distance Mag. Time & Date
Minimum magnitude displayed is 2.5.

Coastal Water Temperatures

Place Temperature

Nearby Weather Stations